Time;durP1;ratioP1;P1;durP2;ratioP2;P2;SDS_P1;SDS_P2;PMS_P1;PMS_P2;Temp;Humidity;BMP_temperature;BMP_pressure;BME280_temperature;BME280_humidity;BME280_pressure;Samples;Min_cycle;Max_cycle;Signal;HPM_P1;HPM_P2
2021/11/28 00:02:21;;;;;;;10.50;2.25;;;;;;;5.15;90.36;99259.03;5074243;28;20044;-67
2021/11/28 00:04:49;;;;;;;;;;;;;;;5.55;89.26;99260.66;5090583;28;20048;-67
2021/11/28 00:15:03;;;;;;;9.90;1.98;;;;;;;5.27;87.70;99264.72;5074362;28;20049;-65
2021/11/28 00:17:31;;;;;;;9.27;2.28;;;;;;;5.78;89.18;99266.84;5073231;28;20396;-66
2021/11/28 00:19:58;;;;;;;8.98;1.90;;;;;;;5.65;87.04;99270.47;5074494;28;20070;-66
2021/11/28 00:22:25;;;;;;;7.80;2.40;;;;;;;5.60;89.20;99263.25;5062404;28;20045;-65
2021/11/28 00:24:52;;;;;;;11.30;2.47;;;;;;;5.36;87.57;99267.47;5071726;28;20061;-65
2021/11/28 00:27:19;;;;;;;7.18;2.03;;;;;;;5.29;89.01;99267.13;5074185;28;20117;-67
2021/11/28 00:29:47;;;;;;;11.73;2.25;;;;;;;5.30;89.32;99268.75;5054594;28;20052;-67
2021/11/28 00:32:14;;;;;;;9.75;2.13;;;;;;;5.34;87.82;99267.00;5053290;28;20056;-67
2021/11/28 00:34:42;;;;;;;7.25;2.22;;;;;;;5.33;87.35;99260.75;5054324;28;20053;-66
2021/11/28 00:37:11;;;;;;;7.03;1.73;;;;;;;5.58;87.18;99268.22;5061460;28;20045;-67
2021/11/28 00:39:39;;;;;;;5.03;1.60;;;;;;;5.94;88.06;99268.06;5083657;28;20475;-64
2021/11/28 00:42:06;;;;;;;10.88;2.00;;;;;;;6.62;83.50;99259.91;5058079;28;20044;-65
2021/11/28 00:44:35;;;;;;;8.07;2.10;;;;;;;6.02;84.86;99275.44;5053551;28;20084;-69
2021/11/28 00:47:02;;;;;;;10.43;2.10;;;;;;;5.92;86.05;99264.81;5056260;28;20060;-66
2021/11/28 00:49:30;;;;;;;7.03;1.95;;;;;;;5.95;86.92;99266.09;5059002;28;20049;-63
2021/11/28 00:51:57;;;;;;;7.15;1.50;;;;;;;7.52;79.24;99263.41;5055502;28;21835;-63
2021/11/28 00:54:26;;;;;;;12.30;1.67;;;;;;;9.13;79.27;99257.09;5063728;28;20052;-64
2021/11/28 00:56:56;;;;;;;6.53;1.98;;;;;;;6.47;79.39;99282.25;5062242;28;20057;-64
2021/11/28 00:59:26;;;;;;;9.38;1.92;;;;;;;7.80;80.73;99264.56;5041535;28;20063;-64
2021/11/28 01:01:55;;;;;;;5.93;1.35;;;;;;;9.50;76.29;99278.03;5090667;28;20162;-64
2021/11/28 01:04:22;;;;;;;9.85;2.22;;;;;;;7.36;78.18;99274.09;5093854;28;20052;-69
2021/11/28 01:06:50;;;;;;;6.10;1.65;;;;;;;6.99;78.97;99284.97;5094627;28;20063;-67
2021/11/28 01:09:18;;;;;;;7.65;2.20;;;;;;;6.06;82.10;99290.09;5095610;28;20048;-69
2021/11/28 01:11:45;;;;;;;7.72;1.80;;;;;;;6.10;80.97;99280.13;5096370;28;20056;-68
2021/11/28 01:14:14;;;;;;;7.32;1.77;;;;;;;5.64;83.98;99293.47;5074312;28;20052;-69
2021/11/28 01:16:44;;;;;;;6.90;1.95;;;;;;;6.13;86.37;99298.63;5057735;28;20053;-68
2021/11/28 01:19:11;;;;;;;6.18;1.90;;;;;;;5.62;83.93;99290.25;5078260;28;20040;-68
2021/11/28 01:21:53;;;;;;;9.82;2.20;;;;;;;5.62;84.29;99307.44;5082881;28;20435;-68
2021/11/28 01:24:21;;;;;;;8.30;2.05;;;;;;;5.58;83.71;99297.44;5074277;28;20056;-68
2021/11/28 01:26:49;;;;;;;11.18;2.10;;;;;;;5.80;83.62;99299.31;5078318;28;20136;-68
2021/11/28 01:29:16;;;;;;;14.30;1.90;;;;;;;7.15;82.82;99299.78;5059805;28;20053;-69
2021/11/28 01:31:44;;;;;;;8.73;2.10;;;;;;;5.78;81.84;99305.09;5058262;28;20056;-68
2021/11/28 01:34:11;;;;;;;10.57;2.05;;;;;;;5.77;83.34;99316.34;5056653;28;20048;-67
2021/11/28 01:36:39;;;;;;;9.02;1.50;;;;;;;6.19;83.33;99315.69;5057198;28;20049;-69
2021/11/28 01:39:08;;;;;;;8.48;1.88;;;;;;;5.93;81.50;99320.28;5065819;28;20049;-70
2021/11/28 01:41:37;;;;;;;11.13;1.75;;;;;;;5.22;84.17;99319.44;5067669;28;20060;-68
2021/11/28 01:44:05;;;;;;;4.43;1.53;;;;;;;5.53;84.83;99313.97;5077087;28;20131;-68
2021/11/28 01:46:33;;;;;;;9.25;1.73;;;;;;;5.31;84.97;99338.59;5062875;28;20399;-68
2021/11/28 01:49:00;;;;;;;9.10;2.10;;;;;;;5.28;85.22;99322.84;5076314;28;20059;-64
2021/11/28 01:51:28;;;;;;;8.73;1.65;;;;;;;5.26;83.77;99334.09;5076361;28;20112;-64
2021/11/28 01:53:56;;;;;;;9.13;1.75;;;;;;;5.81;85.60;99330.97;5059962;28;20055;-68
2021/11/28 01:56:24;;;;;;;6.35;1.45;;;;;;;6.26;83.34;99335.19;5077404;28;20408;-67
2021/11/28 01:58:52;;;;;;;7.78;1.80;;;;;;;5.63;84.09;99339.09;5076112;28;20056;-68
2021/11/28 02:01:21;;;;;;;8.52;1.60;;;;;;;5.36;84.20;99341.19;5059704;28;20045;-67
2021/11/28 02:03:49;;;;;;;8.90;1.92;;;;;;;5.09;84.33;99339.41;5076115;28;20052;-64
2021/11/28 02:06:18;;;;;;;8.70;1.52;;;;;;;5.21;84.95;99338.88;5063618;28;20056;-68
2021/11/28 02:08:46;;;;;;;6.77;1.13;;;;;;;5.28;84.60;99361.84;5057702;28;20041;-68
2021/11/28 02:11:15;;;;;;;10.53;1.87;;;;;;;5.31;85.18;99338.59;5056401;28;20280;-68
2021/11/28 02:13:42;;;;;;;6.45;1.70;;;;;;;5.51;85.07;99343.53;5073425;28;20171;-69
2021/11/28 02:16:12;;;;;;;8.75;1.63;;;;;;;5.37;83.99;99351.81;5057303;28;20048;-68
2021/11/28 02:18:40;;;;;;;6.47;1.57;;;;;;;5.22;85.06;99360.38;5055713;28;20132;-68
2021/11/28 02:21:09;;;;;;;8.55;1.70;;;;;;;5.12;84.52;99352.47;5055997;28;20053;-65
2021/11/28 02:23:37;;;;;;;12.87;1.70;;;;;;;5.13;85.25;99364.16;5039585;28;20064;-69
2021/11/28 02:26:07;;;;;;;11.70;2.20;;;;;;;5.06;85.80;99359.16;5058208;28;20053;-65
2021/11/28 02:28:40;;;;;;;10.18;2.13;;;;;;;5.04;85.42;99366.03;5083290;28;20044;-68
2021/11/28 02:31:08;;;;;;;5.82;1.67;;;;;;;4.94;85.49;99367.09;5076991;28;20055;-68
2021/11/28 02:33:36;;;;;;;8.57;1.98;;;;;;;5.08;86.75;99362.38;5075522;28;20053;-68
2021/11/28 02:36:04;;;;;;;9.77;1.60;;;;;;;5.49;86.23;99365.69;5058823;28;20051;-69
2021/11/28 02:38:32;;;;;;;10.70;1.50;;;;;;;5.51;84.04;99366.19;5076934;28;20053;-68
2021/11/28 02:41:02;;;;;;;9.38;2.13;;;;;;;5.34;85.73;99365.28;5079036;28;20052;-68
2021/11/28 02:43:33;;;;;;;7.32;1.83;;;;;;;5.18;86.11;99369.50;5095757;28;20055;-68
2021/11/28 02:46:03;;;;;;;12.48;2.03;;;;;;;5.20;86.64;99368.06;5082152;28;20049;-68
2021/11/28 02:48:32;;;;;;;8.35;1.40;;;;;;;5.28;84.91;99367.31;5076281;28;20051;-68
2021/11/28 02:50:59;;;;;;;8.23;1.52;;;;;;;5.40;85.35;99364.03;5076696;28;20063;-68
2021/11/28 02:53:27;;;;;;;4.78;1.55;;;;;;;5.65;85.08;99377.81;5075418;28;20095;-68
2021/11/28 02:55:56;;;;;;;7.00;1.50;;;;;;;5.55;84.26;99360.91;5075287;28;20056;-69
2021/11/28 02:58:24;;;;;;;6.90;1.30;;;;;;;5.41;85.27;99362.91;5039730;28;20045;-69
2021/11/28 03:01:03;;;;;;;10.45;1.35;;;;;;;5.51;84.27;99368.91;5057045;28;20061;-68
2021/11/28 03:03:31;;;;;;;5.47;1.40;;;;;;;5.62;82.99;99378.47;5056333;28;20057;-66
2021/11/28 03:05:58;;;;;;;10.40;1.60;;;;;;;5.27;84.89;99367.63;5038698;28;20526;-65
2021/11/28 03:08:26;;;;;;;8.25;1.58;;;;;;;5.03;86.35;99367.16;5055051;28;20049;-68
2021/11/28 03:10:55;;;;;;;4.90;1.33;;;;;;;5.22;85.57;99363.13;5055873;28;20132;-67
2021/11/28 03:13:28;;;;;;;5.43;1.27;;;;;;;5.12;85.63;99381.66;5021969;28;20049;-67
2021/11/28 03:15:59;;;;;;;8.00;1.40;;;;;;;4.84;86.45;99363.78;5054998;28;20048;-68
2021/11/28 03:18:29;;;;;;;11.27;1.50;;;;;;;5.19;85.67;99376.59;5038112;28;20052;-64
2021/11/28 03:21:00;;;;;;;5.22;1.20;;;;;;;6.10;83.51;99372.28;5037202;28;20053;-64
2021/11/28 03:23:30;;;;;;;6.18;1.65;;;;;;;5.15;84.23;99368.22;5055011;28;20056;-64
2021/11/28 03:26:04;;;;;;;7.38;1.20;;;;;;;5.27;85.20;99378.56;5038470;28;20045;-69
2021/11/28 03:28:32;;;;;;;6.43;1.33;;;;;;;5.07;85.41;99377.16;5056282;28;20049;-68
2021/11/28 03:30:59;;;;;;;6.25;1.30;;;;;;;5.36;84.34;99393.06;5037413;28;20057;-63
2021/11/28 03:33:30;;;;;;;4.53;1.25;;;;;;;5.44;84.50;99384.16;5070216;28;20044;-63
2021/11/28 03:36:12;;;;;;;2.42;0.93;;;;;;;5.05;84.14;99394.94;5079059;28;20088;-69
2021/11/28 03:38:40;;;;;;;;;;;;;;;4.86;85.50;99378.75;5077076;28;20055;-63
2021/11/28 03:41:09;;;;;;;6.40;1.40;;;;;;;5.13;83.92;99391.47;5094876;28;20366;-68
2021/11/28 03:43:37;;;;;;;5.85;1.00;;;;;;;5.18;86.16;99381.22;5077933;28;20052;-64
2021/11/28 03:46:05;;;;;;;8.02;1.50;;;;;;;4.95;85.08;99392.44;5084185;28;20134;-63
2021/11/28 03:48:33;;;;;;;8.57;1.60;;;;;;;4.90;86.49;99393.38;5057165;28;20040;-65
2021/11/28 03:51:07;;;;;;;4.47;1.20;;;;;;;5.22;84.70;99390.41;5058683;28;20060;-68
2021/11/28 03:53:36;;;;;;;6.13;1.30;;;;;;;5.25;85.18;99394.44;5074285;28;20519;-63
2021/11/28 03:56:07;;;;;;;4.80;1.38;;;;;;;5.09;85.29;99390.47;5074136;28;20056;-63
2021/11/28 03:58:36;;;;;;;8.02;1.50;;;;;;;6.08;83.11;99391.72;5040929;28;20044;-64
2021/11/28 04:01:07;;;;;;;3.65;1.00;;;;;;;5.44;81.81;99404.03;5073767;28;20060;-67
2021/11/28 04:03:36;;;;;;;7.78;1.27;;;;;;;5.21;83.51;99405.16;5056694;28;20178;-68
2021/11/28 04:06:14;;;;;;;6.50;1.40;;;;;;;5.60;85.06;99407.19;5074254;28;20064;-63
2021/11/28 04:08:41;;;;;;;3.72;0.98;;;;;;;5.78;82.23;99408.91;5075441;28;20055;-69
2021/11/28 04:11:09;;;;;;;4.85;1.13;;;;;;;6.11;82.43;99401.19;5074843;28;20056;-68
2021/11/28 04:13:36;;;;;;;3.33;0.90;;;;;;;5.96;81.43;99407.09;5076202;28;20044;-69
2021/11/28 04:16:04;;;;;;;3.90;1.20;;;;;;;5.88;83.72;99394.19;5072352;28;20044;-63
2021/11/28 04:18:33;;;;;;;3.42;1.00;;;;;;;5.06;83.45;99407.44;5039880;28;20079;-64
2021/11/28 04:21:01;;;;;;;8.27;1.38;;;;;;;5.14;84.77;99398.53;5062214;28;20059;-68
2021/11/28 04:23:28;;;;;;;4.63;1.30;;;;;;;5.55;83.27;99396.41;5072566;28;20068;-65
2021/11/28 04:25:56;;;;;;;5.47;1.38;;;;;;;5.18;84.74;99404.97;5069740;28;20044;-67
2021/11/28 04:28:26;;;;;;;3.72;1.13;;;;;;;5.30;83.71;99443.47;5037888;28;20488;-64
2021/11/28 04:30:55;;;;;;;6.13;1.40;;;;;;;5.29;84.77;99400.88;5053422;28;20048;-64
2021/11/28 04:33:22;;;;;;;7.90;1.65;;;;;;;5.39;85.22;99417.00;5053494;28;20053;-64
2021/11/28 04:35:50;;;;;;;15.95;2.45;;;;;;;5.13;83.52;99414.09;5037431;28;20049;-65
2021/11/28 04:38:19;;;;;;;7.18;2.05;;;;;;;5.25;86.12;99405.34;5060863;28;20040;-68
2021/11/28 04:40:47;;;;;;;7.88;1.40;;;;;;;5.27;85.33;99403.13;5092308;28;20056;-64
2021/11/28 04:43:14;;;;;;;7.03;1.25;;;;;;;5.83;84.42;99402.53;5093555;28;20055;-68
2021/11/28 04:45:42;;;;;;;6.22;1.30;;;;;;;5.47;83.28;99400.69;5069479;28;20116;-68
2021/11/28 04:48:09;;;;;;;9.32;1.40;;;;;;;6.67;80.92;99398.47;5073658;28;20140;-69
2021/11/28 04:50:41;;;;;;;4.70;1.00;;;;;;;5.94;79.79;99415.63;5073396;28;20048;-67
2021/11/28 04:53:08;;;;;;;8.40;1.40;;;;;;;5.79;80.48;99431.59;5073818;28;20048;-69
2021/11/28 04:55:36;;;;;;;7.65;1.20;;;;;;;4.94;84.55;99420.84;5073783;28;20051;-66
2021/11/28 04:58:03;;;;;;;6.30;1.10;;;;;;;5.43;82.68;99420.75;5075090;28;20407;-67
2021/11/28 05:00:31;;;;;;;4.30;1.40;;;;;;;5.66;85.54;99417.69;5076129;28;20060;-64
2021/11/28 05:03:01;;;;;;;6.38;1.63;;;;;;;5.45;81.93;99421.25;5061527;28;20051;-64
2021/11/28 05:05:37;;;;;;;4.35;1.05;;;;;;;5.51;86.15;99425.44;5077249;28;20499;-63
2021/11/28 05:08:23;;;;;;;6.45;1.60;;;;;;;5.24;84.42;99420.94;5078796;28;20044;-64
2021/11/28 05:10:51;;;;;;;5.07;1.05;;;;;;;5.32;85.44;99416.63;5062868;28;20065;-64
2021/11/28 05:13:18;;;;;;;3.90;1.08;;;;;;;5.89;84.94;99412.22;5077835;28;20052;-69
2021/11/28 05:15:46;;;;;;;3.72;1.20;;;;;;;6.29;85.03;99422.84;5069549;28;20057;-68
2021/11/28 05:18:45;;;;;;;5.63;1.53;;;;;;;5.60;82.24;99418.13;5058314;28;20041;-64
2021/11/28 05:21:35;;;;;;;4.95;1.10;;;;;;;6.54;81.62;99421.28;5056011;28;20288;-65
2021/11/28 05:24:02;;;;;;;6.22;1.00;;;;;;;6.65;79.94;99417.94;5057206;28;20048;-64
2021/11/28 05:26:33;;;;;;;6.38;1.30;;;;;;;6.67;81.31;99415.69;5040049;28;20060;-64
2021/11/28 05:29:02;;;;;;;4.35;1.20;;;;;;;5.62;83.05;99408.50;5057331;28;20147;-64
2021/11/28 05:31:30;;;;;;;3.08;1.10;;;;;;;5.79;82.77;99412.47;5076885;28;20048;-65
2021/11/28 05:34:27;;;;;;;3.92;1.40;;;;;;;5.39;84.10;99430.66;5065798;28;20056;-68
2021/11/28 05:37:00;;;;;;;4.82;1.23;;;;;;;5.63;85.52;99420.25;5058278;28;20060;-68
2021/11/28 05:39:33;;;;;;;11.07;1.50;;;;;;;5.44;83.53;99441.50;5066776;28;20044;-69
2021/11/28 05:42:00;;;;;;;8.80;1.52;;;;;;;5.11;85.28;99449.06;5077106;28;20503;-64
2021/11/28 05:44:28;;;;;;;7.22;1.60;;;;;;;5.87;84.88;99439.84;5076785;28;20056;-65
2021/11/28 05:47:14;;;;;;;7.28;1.23;;;;;;;6.19;81.51;99447.72;5078058;28;20536;-64
2021/11/28 05:50:20;;;;;;;8.93;1.40;;;;;;;5.39;84.86;99455.25;5074429;28;20075;-65
2021/11/28 05:52:50;;;;;;;4.55;1.58;;;;;;;4.80;89.39;99444.63;5088755;28;20067;-64
2021/11/28 05:55:18;;;;;;;7.82;1.25;;;;;;;5.35;88.84;99449.59;5076621;28;20056;-65
2021/11/28 05:57:51;;;;;;;7.45;1.40;;;;;;;5.81;86.98;99446.53;5043471;28;20052;-69
2021/11/28 06:00:25;;;;;;;8.50;1.75;;;;;;;5.46;86.72;99452.88;5075977;28;20056;-70
2021/11/28 06:02:54;;;;;;;8.50;1.73;;;;;;;6.14;87.60;99456.06;5078057;28;20060;-68
2021/11/28 06:05:41;;;;;;;5.53;1.38;;;;;;;6.06;85.96;99451.38;5060184;28;20514;-68
2021/11/28 06:08:29;;;;;;;6.00;1.80;;;;;;;5.29;86.24;99469.13;5057116;28;20040;-69
2021/11/28 06:11:00;;;;;;;7.43;1.60;;;;;;;5.61;88.58;99453.31;5055234;28;20061;-64
2021/11/28 06:13:27;;;;;;;7.75;1.67;;;;;;;5.44;85.70;99463.34;5055843;28;20511;-67
2021/11/28 06:16:14;;;;;;;5.85;1.50;;;;;;;4.64;90.07;99484.25;5061033;28;20045;-64
2021/11/28 06:19:04;;;;;;;8.25;1.58;;;;;;;4.61;92.12;99477.47;5061780;28;20063;-68
2021/11/28 06:21:54;;;;;;;11.38;3.03;;;;;;;5.06;90.45;99471.03;5062292;28;20526;-69
2021/11/28 06:24:27;;;;;;;10.30;1.67;;;;;;;4.77;91.41;99488.88;5071606;28;20049;-64
2021/11/28 06:27:06;;;;;;;7.72;1.50;;;;;;;4.98;90.54;99473.69;5054904;28;20052;-63
2021/11/28 06:29:34;;;;;;;9.88;1.67;;;;;;;4.63;90.99;99474.44;5056168;28;20519;-65
2021/11/28 06:32:03;;;;;;;3.75;1.10;;;;;;;4.87;89.92;99489.47;5055339;28;20048;-68
2021/11/28 06:34:42;;;;;;;;;;;;;;;4.76;89.53;99479.88;5056190;28;20056;-67
2021/11/28 06:37:39;;;;;;;8.68;1.35;;;;;;;5.10;87.91;99493.88;5052864;28;19935;-66
2021/11/28 06:40:25;;;;;;;9.02;2.30;;;;;;;4.66;89.50;99491.00;5089165;28;20407;-64
2021/11/28 06:43:04;;;;;;;5.78;1.45;;;;;;;4.83;90.49;99496.63;5066917;28;20060;-64
2021/11/28 06:45:32;;;;;;;6.78;1.75;;;;;;;4.66;89.30;99490.19;5055396;28;20461;-68
2021/11/28 06:48:04;;;;;;;7.00;1.75;;;;;;;4.89;87.73;99505.53;5055302;28;20077;-67
2021/11/28 06:50:44;;;;;;;8.98;1.77;;;;;;;4.89;88.29;99500.06;5054913;28;20056;-65
2021/11/28 06:53:16;;;;;;;8.15;1.67;;;;;;;5.34;88.97;99501.78;5071970;28;20049;-67
2021/11/28 06:56:04;;;;;;;10.00;1.83;;;;;;;5.19;85.25;99513.06;5040630;28;20064;-64
2021/11/28 06:58:43;;;;;;;7.63;1.88;;;;;;;5.11;86.41;99511.06;5055328;28;20052;-65
2021/11/28 07:01:12;;;;;;;12.98;2.35;;;;;;;4.99;85.28;99533.41;5065787;28;20059;-69
2021/11/28 07:03:40;;;;;;;9.43;1.80;;;;;;;5.39;87.54;99518.84;5085213;28;20048;-68
2021/11/28 07:06:30;;;;;;;7.60;1.50;;;;;;;5.27;84.64;99534.97;5095654;28;20071;-63
2021/11/28 07:08:59;;;;;;;14.88;2.15;;;;;;;4.91;85.16;99533.31;5095305;28;20463;-64
2021/11/28 07:11:26;;;;;;;9.55;1.75;;;;;;;4.99;85.52;99522.50;5081518;28;20136;-64
2021/11/28 07:13:54;;;;;;;9.18;1.98;;;;;;;4.94;85.27;99547.16;5074840;28;20396;-67
2021/11/28 07:16:37;;;;;;;6.88;1.58;;;;;;;4.79;85.62;99544.75;5092705;27;20377;-64
2021/11/28 07:19:05;;;;;;;8.77;1.75;;;;;;;5.37;87.24;99534.72;5093779;27;20063;-64
2021/11/28 07:21:54;;;;;;;9.02;1.48;;;;;;;5.34;83.11;99551.72;5091005;28;20482;-64
2021/11/28 07:24:21;;;;;;;6.32;2.10;;;;;;;5.74;84.85;99541.78;5091416;28;20492;-68
2021/11/28 07:26:49;;;;;;;9.13;1.40;;;;;;;5.66;82.06;99553.47;5073852;28;20055;-65
2021/11/28 07:29:18;;;;;;;8.07;1.70;;;;;;;5.16;82.61;99563.59;5106387;28;20052;-65
2021/11/28 07:31:46;;;;;;;4.90;1.50;;;;;;;5.12;84.30;99568.06;5066765;28;20047;-64
2021/11/28 07:34:35;;;;;;;;;;;;;;;5.65;83.55;99574.50;5109067;28;20044;-66
2021/11/28 07:37:21;;;;;;;5.32;1.23;;;;;;;4.84;83.85;99576.56;5097348;28;19920;-65
2021/11/28 07:39:49;;;;;;;4.35;1.33;;;;;;;4.96;83.37;99582.31;5101616;28;20055;-64
2021/11/28 07:42:17;;;;;;;6.18;1.10;;;;;;;4.99;83.37;99581.69;5111250;28;20054;-66
2021/11/28 07:44:53;;;;;;;11.45;2.33;;;;;;;5.22;81.88;99599.78;5081200;28;20051;-66
2021/11/28 07:47:35;;;;;;;12.02;1.50;;;;;;;5.02;82.95;99590.09;5091739;28;20118;-65
2021/11/28 07:50:15;;;;;;;5.60;1.35;;;;;;;5.19;83.16;99598.50;5089611;28;20671;-69
2021/11/28 07:52:48;;;;;;;8.32;1.17;;;;;;;5.21;83.56;99587.25;5080015;28;20049;-67
2021/11/28 07:55:24;;;;;;;7.17;1.50;;;;;;;5.47;82.10;99585.59;5070820;28;20047;-65
2021/11/28 07:58:02;;;;;;;6.43;1.50;;;;;;;5.69;79.87;99621.94;5072096;28;20052;-68
2021/11/28 08:00:35;;;;;;;7.40;1.35;;;;;;;5.61;80.52;99622.66;5086651;28;20072;-64
2021/11/28 08:03:18;;;;;;;5.45;1.30;;;;;;;6.04;78.42;99597.66;5071055;28;20049;-67
2021/11/28 08:06:04;;;;;;;6.47;1.50;;;;;;;5.32;79.80;99622.22;5070591;28;20048;-63
2021/11/28 08:09:08;;;;;;;7.55;1.88;;;;;;;4.87;81.51;99619.59;5084719;28;20059;-64
2021/11/28 08:11:48;;;;;;;4.75;1.60;;;;;;;5.54;84.31;99632.41;5099956;28;20051;-66
2021/11/28 08:14:15;;;;;;;5.00;1.23;;;;;;;4.84;81.88;99626.50;5090035;28;20063;-65
2021/11/28 08:16:43;;;;;;;6.20;1.75;;;;;;;4.96;83.95;99632.25;5077820;28;20053;-65
2021/11/28 08:19:10;;;;;;;8.23;1.55;;;;;;;5.18;81.86;99628.78;5086946;28;20052;-62
2021/11/28 08:21:37;;;;;;;6.72;1.38;;;;;;;4.83;82.12;99634.97;5089615;28;20057;-68
2021/11/28 08:24:05;;;;;;;8.02;1.67;;;;;;;4.87;82.12;99631.31;5091539;28;20491;-66
2021/11/28 08:26:36;;;;;;;4.75;1.42;;;;;;;5.19;84.52;99624.97;5084330;28;20055;-66
2021/11/28 08:29:04;;;;;;;6.82;1.88;;;;;;;5.02;84.02;99633.75;5076669;28;20525;-66
2021/11/28 08:31:38;;;;;;;9.73;1.77;;;;;;;5.43;86.52;99631.00;5069023;28;20055;-73
2021/11/28 08:34:41;;;;;;;8.77;1.50;;;;;;;5.26;80.95;99636.28;5047358;28;20378;-64
2021/11/28 08:37:12;;;;;;;11.38;2.20;;;;;;;5.43;79.91;99626.34;5052036;28;20045;-70
2021/11/28 08:39:40;;;;;;;4.85;1.25;;;;;;;8.00;81.66;99625.75;5071105;28;20057;-65
2021/11/28 08:42:08;;;;;;;5.88;1.70;;;;;;;6.23;77.69;99633.81;5067488;28;20051;-64
2021/11/28 08:44:37;;;;;;;8.32;1.92;;;;;;;5.64;78.94;99645.84;5075016;28;20053;-67
2021/11/28 08:47:04;;;;;;;10.55;1.85;;;;;;;4.98;81.20;99635.50;5064788;28;20060;-65
2021/11/28 08:49:34;;;;;;;7.53;1.92;;;;;;;5.38;81.06;99633.84;5059847;28;20487;-70
2021/11/28 08:52:02;;;;;;;11.85;2.00;;;;;;;5.35;80.95;99645.38;5071040;28;20123;-69
2021/11/28 08:54:30;;;;;;;10.45;2.40;;;;;;;5.34;82.68;99651.94;5075892;28;20060;-66
2021/11/28 08:56:58;;;;;;;8.77;2.42;;;;;;;5.53;82.86;99647.16;5074068;28;20150;-68
2021/11/28 08:59:28;;;;;;;11.98;1.90;;;;;;;5.69;81.08;99662.09;5058397;28;20048;-67
2021/11/28 09:01:57;;;;;;;6.50;1.70;;;;;;;5.43;82.03;99661.03;5058172;28;20056;-71
2021/11/28 09:04:25;;;;;;;;;;;;;;;6.41;88.29;99655.50;5056653;28;20057;-69
2021/11/28 09:06:52;;;;;;;8.85;1.88;;;;;;;5.51;81.08;99658.41;5057033;28;20725;-63
2021/11/28 09:09:20;;;;;;;8.35;2.28;;;;;;;5.19;81.32;99676.81;5057468;28;20053;-66
2021/11/28 09:11:47;;;;;;;10.30;2.00;;;;;;;5.13;82.80;99687.03;5056853;28;20044;-65
2021/11/28 09:14:14;;;;;;;8.30;1.90;;;;;;;5.38;82.46;99678.34;5056270;28;20049;-64
2021/11/28 09:16:42;;;;;;;7.97;1.75;;;;;;;5.73;83.04;99669.41;5061058;28;20048;-64
2021/11/28 09:21:40;;;;;;;7.72;2.30;;;;;;;5.72;80.55;99680.59;5067983;28;20056;-66
2021/11/28 09:26:53;;;;;;;15.88;2.75;;;;;;;5.44;81.51;99687.25;5074393;28;20104;-68
2021/11/28 09:29:20;;;;;;;7.97;2.55;;;;;;;5.66;81.93;99688.13;5069709;28;20070;-65
2021/11/28 09:31:47;;;;;;;12.40;2.42;;;;;;;5.80;81.50;99707.22;5056248;28;20063;-67
2021/11/28 09:34:15;;;;;;;7.70;2.10;;;;;;;5.46;82.28;99691.28;5067283;28;20041;-64
2021/11/28 09:36:42;;;;;;;8.88;2.42;;;;;;;5.98;80.80;99705.50;5055601;28;20049;-62
2021/11/28 09:39:10;;;;;;;9.82;2.42;;;;;;;5.72;80.08;99716.13;5073753;28;20047;-63
2021/11/28 09:42:02;;;;;;;11.88;2.35;;;;;;;5.51;81.03;99717.66;5094167;28;20048;-63
2021/11/28 09:44:32;;;;;;;12.77;1.98;;;;;;;5.48;81.39;99707.34;5055319;28;20503;-64
2021/11/28 09:46:59;;;;;;;;;;;;;;;5.72;80.50;99708.75;5057217;28;20048;-61
2021/11/28 09:49:28;;;;;;;8.43;2.10;;;;;;;5.43;79.91;99712.91;5059202;28;20505;-66
2021/11/28 09:51:58;;;;;;;9.45;1.83;;;;;;;5.39;80.83;99706.44;5057115;28;20053;-63
2021/11/28 09:54:25;;;;;;;14.32;2.92;;;;;;;5.66;78.99;99715.44;5066624;28;20048;-66
2021/11/28 09:56:53;;;;;;;10.65;2.45;;;;;;;6.15;77.35;99720.13;5067754;28;20052;-67
2021/11/28 09:59:21;;;;;;;9.90;2.40;;;;;;;5.19;80.97;99712.31;5059989;28;20053;-68
2021/11/28 10:01:49;;;;;;;10.60;2.47;;;;;;;5.20;81.83;99724.84;5062069;28;20057;-65
2021/11/28 10:04:17;;;;;;;10.57;2.45;;;;;;;5.16;81.08;99729.31;5056471;28;20053;-69
2021/11/28 10:06:44;;;;;;;14.43;2.60;;;;;;;4.88;81.67;99735.81;5066362;28;20048;-64
2021/11/28 10:09:13;;;;;;;11.05;2.92;;;;;;;5.23;80.46;99741.41;5089853;28;20052;-66
2021/11/28 10:11:40;;;;;;;7.75;2.30;;;;;;;4.97;80.72;99731.31;5096178;28;20062;-67
2021/11/28 10:14:13;;;;;;;10.85;2.08;;;;;;;4.88;81.25;99728.44;5088541;28;20056;-63
2021/11/28 10:16:41;;;;;;;15.27;2.85;;;;;;;5.45;82.97;99727.91;5074242;28;20052;-63
2021/11/28 10:19:09;;;;;;;15.68;2.90;;;;;;;4.90;80.75;99748.03;5065342;28;20155;-64
2021/11/28 10:21:37;;;;;;;12.52;2.78;;;;;;;4.82;81.52;99745.19;5054437;28;20056;-64
2021/11/28 10:24:11;;;;;;;10.13;2.30;;;;;;;4.59;81.86;99736.84;5072539;28;20076;-63
2021/11/28 10:27:02;;;;;;;10.77;3.13;;;;;;;4.74;84.02;99746.69;5066391;28;20049;-64
2021/11/28 10:29:32;;;;;;;9.27;2.40;;;;;;;4.86;81.26;99738.03;5059996;28;20044;-64
2021/11/28 10:32:01;;;;;;;13.48;2.53;;;;;;;5.23;82.36;99727.00;5095805;28;20048;-65
2021/11/28 10:34:30;;;;;;;8.93;2.50;;;;;;;5.03;80.06;99721.88;5094253;28;20063;-64
2021/11/28 10:37:09;;;;;;;11.90;2.38;;;;;;;4.86;80.27;99721.66;5090985;28;20055;-64
2021/11/28 10:39:45;;;;;;;16.35;2.90;;;;;;;5.28;79.92;99722.22;5082410;28;20060;-69
2021/11/28 10:42:28;;;;;;;15.30;2.85;;;;;;;4.76;79.31;99730.81;5078465;28;20041;-67
2021/11/28 10:45:07;;;;;;;11.20;3.22;;;;;;;4.98;80.55;99727.44;5055286;28;20071;-65
2021/11/28 10:47:46;;;;;;;11.60;2.95;;;;;;;4.57;79.72;99730.06;5087342;28;20055;-64
2021/11/28 10:50:27;;;;;;;10.88;2.50;;;;;;;4.48;81.71;99729.94;5073606;28;20052;-64
2021/11/28 10:53:10;;;;;;;10.15;2.90;;;;;;;4.49;80.56;99747.94;5075127;28;20049;-65
2021/11/28 10:55:43;;;;;;;10.77;3.03;;;;;;;4.45;81.80;99737.91;5057750;28;20061;-65
2021/11/28 10:58:17;;;;;;;16.58;3.03;;;;;;;4.86;83.32;99729.84;5067657;28;20642;-65
2021/11/28 11:00:50;;;;;;;13.05;2.67;;;;;;;5.07;79.65;99714.72;5064847;28;20456;-66
2021/11/28 11:03:19;;;;;;;11.95;3.22;;;;;;;4.92;82.02;99723.19;5074738;28;20075;-64
2021/11/28 11:05:53;;;;;;;11.82;2.78;;;;;;;4.87;80.01;99742.38;5075220;28;20206;-64
2021/11/28 11:08:24;;;;;;;11.18;2.50;;;;;;;5.15;80.58;99736.69;5068418;28;20055;-66
2021/11/28 11:11:09;;;;;;;11.27;2.88;;;;;;;4.60;80.42;99719.38;5046231;28;20054;-67
2021/11/28 11:13:52;;;;;;;13.63;3.00;;;;;;;5.86;79.44;99713.44;5057137;28;20048;-66
2021/11/28 11:16:40;;;;;;;15.77;2.88;;;;;;;5.26;78.39;99707.25;5058391;28;20045;-66
2021/11/28 11:19:39;;;;;;;17.05;2.95;;;;;;;5.68;82.12;99710.47;5053690;28;20507;-65
2021/11/28 11:22:22;;;;;;;12.95;2.45;;;;;;;5.19;76.71;99720.50;5066983;28;20045;-65
2021/11/28 11:24:58;;;;;;;8.90;3.03;;;;;;;4.73;77.77;99736.06;5073452;28;20052;-65
2021/11/28 11:27:53;;;;;;;9.50;3.13;;;;;;;5.35;79.11;99728.06;5074980;28;20484;-66
2021/11/28 11:30:25;;;;;;;8.63;2.38;;;;;;;5.18;76.33;99732.50;5072603;28;20048;-62
2021/11/28 11:33:01;;;;;;;13.52;2.42;;;;;;;5.44;74.84;99753.56;5054294;28;20052;-62
2021/11/28 11:35:31;;;;;;;8.65;2.45;;;;;;;4.94;76.12;99746.34;5069131;28;20044;-66
2021/11/28 11:37:59;;;;;;;;;;;;;;;4.77;75.93;99748.81;5064603;28;20045;-65
2021/11/28 11:40:26;;;;;;;9.00;3.03;;;;;;;5.35;76.20;99727.28;5057365;28;19928;-63
2021/11/28 11:42:54;;;;;;;10.07;2.38;;;;;;;4.98;75.70;99735.63;5056654;28;20055;-65
2021/11/28 11:45:26;;;;;;;11.60;2.20;;;;;;;5.31;75.33;99734.47;5058276;28;20396;-66
2021/11/28 11:47:56;;;;;;;9.52;1.92;;;;;;;5.08;74.27;99738.16;5053551;28;20045;-65
2021/11/28 11:50:26;;;;;;;5.25;1.75;;;;;;;5.40;69.99;99757.22;5054134;28;20059;-64
2021/11/28 11:52:54;;;;;;;11.23;2.55;;;;;;;5.06;71.51;99737.66;5078041;28;20484;-65
2021/11/28 11:55:29;;;;;;;33.28;8.10;;;;;;;5.48;71.45;99740.94;5052208;28;20057;-64
2021/11/28 11:58:16;;;;;;;10.60;2.97;;;;;;;4.79;71.39;99740.34;5056191;28;20068;-64
2021/11/28 12:00:58;;;;;;;11.98;2.40;;;;;;;4.85;71.65;99737.22;5067671;28;20052;-64
2021/11/28 12:03:27;;;;;;;10.13;2.55;;;;;;;4.80;72.42;99750.13;5062014;28;20416;-64
2021/11/28 12:05:57;;;;;;;34.20;11.02;;;;;;;5.61;77.09;99731.91;5065431;28;20202;-63
2021/11/28 12:08:27;;;;;;;10.50;2.33;;;;;;;5.58;72.19;99715.31;5079719;28;20048;-63
2021/11/28 12:11:01;;;;;;;13.07;2.75;;;;;;;5.05;72.24;99727.88;5079952;28;20416;-64
2021/11/28 12:13:29;;;;;;;9.95;2.13;;;;;;;4.90;72.80;99733.59;5067489;28;20531;-62
2021/11/28 12:16:05;;;;;;;38.65;10.68;;;;;;;5.51;75.35;99720.38;5088245;28;20055;-62
2021/11/28 12:18:33;;;;;;;9.88;2.17;;;;;;;5.41;70.10;99726.88;5098084;28;20059;-63